sensor_id;sensor_type;location;lat;lon;timestamp;pressure;altitude;pressure_sealevel;temperature;humidity
69187;BME280;56301;56.864;60.554;2023-02-28T00:00:33;97326.25;;;24.35;37.17
69187;BME280;56301;56.864;60.554;2023-02-28T00:02:56;97330.19;;;24.39;36.94
69187;BME280;56301;56.864;60.554;2023-02-28T00:05:20;97320.41;;;24.38;37.19
69187;BME280;56301;56.864;60.554;2023-02-28T00:07:43;97308.56;;;24.39;37.52
69187;BME280;56301;56.864;60.554;2023-02-28T00:10:07;97314.19;;;24.37;37.27
69187;BME280;56301;56.864;60.554;2023-02-28T00:12:30;97306.69;;;24.33;37.58
69187;BME280;56301;56.864;60.554;2023-02-28T00:14:52;97304.47;;;24.30;37.29
69187;BME280;56301;56.864;60.554;2023-02-28T00:17:15;97310.06;;;24.28;37.10
69187;BME280;56301;56.864;60.554;2023-02-28T00:19:38;97290.31;;;24.27;37.18
69187;BME280;56301;56.864;60.554;2023-02-28T00:22:00;97287.63;;;24.27;37.26
69187;BME280;56301;56.864;60.554;2023-02-28T00:24:22;97283.25;;;24.26;37.19
69187;BME280;56301;56.864;60.554;2023-02-28T00:26:45;97287.63;;;24.27;37.49
69187;BME280;56301;56.864;60.554;2023-02-28T00:29:07;97280.56;;;24.26;37.01
69187;BME280;56301;56.864;60.554;2023-02-28T00:31:30;97264.34;;;24.26;37.33
69187;BME280;56301;56.864;60.554;2023-02-28T00:33:52;97266.81;;;24.28;37.30
69187;BME280;56301;56.864;60.554;2023-02-28T00:36:17;97263.53;;;24.26;37.33
69187;BME280;56301;56.864;60.554;2023-02-28T00:38:39;97258.31;;;24.24;37.98
69187;BME280;56301;56.864;60.554;2023-02-28T00:41:02;97258.53;;;24.23;37.26
69187;BME280;56301;56.864;60.554;2023-02-28T00:43:25;97253.34;;;24.21;37.79
69187;BME280;56301;56.864;60.554;2023-02-28T00:45:47;97245.22;;;24.21;37.69
69187;BME280;56301;56.864;60.554;2023-02-28T00:48:10;97240.88;;;24.20;37.23
69187;BME280;56301;56.864;60.554;2023-02-28T00:50:34;97242.53;;;24.21;37.76
69187;BME280;56301;56.864;60.554;2023-02-28T00:52:57;97245.84;;;24.23;37.15
69187;BME280;56301;56.864;60.554;2023-02-28T00:55:19;97242.09;;;24.24;37.21
69187;BME280;56301;56.864;60.554;2023-02-28T00:57:42;97241.03;;;24.25;37.39
69187;BME280;56301;56.864;60.554;2023-02-28T01:00:05;97245.63;;;24.25;37.16
69187;BME280;56301;56.864;60.554;2023-02-28T01:02:28;97250.63;;;24.21;37.54
69187;BME280;56301;56.864;60.554;2023-02-28T01:04:50;97234.41;;;24.21;36.86
69187;BME280;56301;56.864;60.554;2023-02-28T01:07:13;97238.81;;;24.22;37.24
69187;BME280;56301;56.864;60.554;2023-02-28T01:09:36;97231.72;;;24.21;36.98
69187;BME280;56301;56.864;60.554;2023-02-28T01:12:18;97237.13;;;24.21;36.82
69187;BME280;56301;56.864;60.554;2023-02-28T01:14:43;97233.81;;;24.19;36.97
69187;BME280;56301;56.864;60.554;2023-02-28T01:17:05;97235.47;;;24.20;37.58
69187;BME280;56301;56.864;60.554;2023-02-28T01:19:28;97239.41;;;24.24;36.72
69187;BME280;56301;56.864;60.554;2023-02-28T01:21:50;97231.28;;;24.24;36.96
69187;BME280;56301;56.864;60.554;2023-02-28T01:24:13;97238.56;;;24.24;36.72
69187;BME280;56301;56.864;60.554;2023-02-28T01:26:35;97238.97;;;24.27;37.54
69187;BME280;56301;56.864;60.554;2023-02-28T01:28:58;97236.91;;;24.23;36.83
69187;BME280;56301;56.864;60.554;2023-02-28T01:31:21;97218.88;;;24.17;36.64
69187;BME280;56301;56.864;60.554;2023-02-28T01:33:44;97213.88;;;24.14;37.28
69187;BME280;56301;56.864;60.554;2023-02-28T01:36:09;97212.88;;;24.15;37.10
69187;BME280;56301;56.864;60.554;2023-02-28T01:38:33;97212.41;;;24.18;37.07
69187;BME280;56301;56.864;60.554;2023-02-28T01:40:56;97196.19;;;24.18;37.26
69187;BME280;56301;56.864;60.554;2023-02-28T01:43:28;97187.69;;;24.14;36.89
69187;BME280;56301;56.864;60.554;2023-02-28T01:45:55;97197.63;;;24.20;36.83
69187;BME280;56301;56.864;60.554;2023-02-28T01:48:17;97192.22;;;24.20;36.86
69187;BME280;56301;56.864;60.554;2023-02-28T01:50:42;97184.09;;;24.27;36.69
69187;BME280;56301;56.864;60.554;2023-02-28T01:53:06;97189.84;;;24.37;36.18
69187;BME280;56301;56.864;60.554;2023-02-28T01:55:29;97188.53;;;24.46;36.54
69187;BME280;56301;56.864;60.554;2023-02-28T01:57:55;97176.47;;;24.49;36.46
69187;BME280;56301;56.864;60.554;2023-02-28T02:00:20;97179.56;;;24.53;36.45
69187;BME280;56301;56.864;60.554;2023-02-28T02:02:45;97171.00;;;24.56;36.44
69187;BME280;56301;56.864;60.554;2023-02-28T02:05:12;97178.88;;;24.57;36.17
69187;BME280;56301;56.864;60.554;2023-02-28T02:07:37;97054.72;;;24.56;35.86
69187;BME280;56301;56.864;60.554;2023-02-28T02:15:16;97163.22;;;24.41;37.05
69187;BME280;56301;56.864;60.554;2023-02-28T02:17:42;97150.72;;;24.40;36.62
69187;BME280;56301;56.864;60.554;2023-02-28T02:22:37;97144.09;;;24.36;36.96
69187;BME280;56301;56.864;60.554;2023-02-28T02:40:38;97124.44;;;24.22;37.18
69187;BME280;56301;56.864;60.554;2023-02-28T02:46:08;97121.97;;;24.20;36.72
69187;BME280;56301;56.864;60.554;2023-02-28T02:48:34;97119.69;;;24.17;36.77
69187;BME280;56301;56.864;60.554;2023-02-28T02:50:58;97127.22;;;24.15;36.88
69187;BME280;56301;56.864;60.554;2023-02-28T02:53:24;97114.72;;;24.14;37.24
69187;BME280;56301;56.864;60.554;2023-02-28T02:55:50;97118.69;;;24.18;37.37
69187;BME280;56301;56.864;60.554;2023-02-28T02:58:15;97118.69;;;24.18;36.78
69187;BME280;56301;56.864;60.554;2023-02-28T03:00:41;97107.41;;;24.21;37.10
69187;BME280;56301;56.864;60.554;2023-02-28T03:03:06;97104.06;;;24.26;37.13
69187;BME280;56301;56.864;60.554;2023-02-28T03:05:48;97103.44;;;24.24;36.85
69187;BME280;56301;56.864;60.554;2023-02-28T03:08:12;97098.09;;;24.17;36.73
69187;BME280;56301;56.864;60.554;2023-02-28T03:10:45;97095.56;;;24.22;36.61
69187;BME280;56301;56.864;60.554;2023-02-28T03:18:47;97086.19;;;24.50;36.16
69187;BME280;56301;56.864;60.554;2023-02-28T03:21:29;97098.81;;;24.56;36.11
69187;BME280;56301;56.864;60.554;2023-02-28T03:23:59;97097.94;;;24.62;36.45
69187;BME280;56301;56.864;60.554;2023-02-28T03:26:26;97094.16;;;24.63;35.73
69187;BME280;56301;56.864;60.554;2023-02-28T03:33:36;97099.03;;;24.55;36.82
69187;BME280;56301;56.864;60.554;2023-02-28T03:36:02;97103.34;;;24.37;36.41
69187;BME280;56301;56.864;60.554;2023-02-28T03:38:28;97091.41;;;24.20;37.31
69187;BME280;56301;56.864;60.554;2023-02-28T03:41:01;97095.00;;;24.14;37.50
69187;BME280;56301;56.864;60.554;2023-02-28T03:43:28;97082.78;;;24.11;36.88
69187;BME280;56301;56.864;60.554;2023-02-28T03:45:51;97077.38;;;24.11;37.15
69187;BME280;56301;56.864;60.554;2023-02-28T03:48:16;97080.94;;;24.05;36.98
69187;BME280;56301;56.864;60.554;2023-02-28T03:50:41;97083.69;;;23.98;36.74
69187;BME280;56301;56.864;60.554;2023-02-28T03:55:32;97079.38;;;23.91;37.33
69187;BME280;56301;56.864;60.554;2023-02-28T03:58:01;97075.25;;;23.88;37.13
69187;BME280;56301;56.864;60.554;2023-02-28T04:00:30;97078.38;;;23.85;37.42
69187;BME280;56301;56.864;60.554;2023-02-28T04:02:54;97092.13;;;23.84;36.98
69187;BME280;56301;56.864;60.554;2023-02-28T04:05:17;97105.84;;;23.82;37.50
69187;BME280;56301;56.864;60.554;2023-02-28T04:07:40;97102.09;;;23.83;37.52
69187;BME280;56301;56.864;60.554;2023-02-28T04:10:03;97091.72;;;23.80;36.98
69187;BME280;56301;56.864;60.554;2023-02-28T04:12:26;97100.06;;;23.78;37.15
69187;BME280;56301;56.864;60.554;2023-02-28T04:14:49;97111.88;;;23.77;37.04
69187;BME280;56301;56.864;60.554;2023-02-28T04:17:12;97105.66;;;23.77;37.05
69187;BME280;56301;56.864;60.554;2023-02-28T04:19:34;97106.72;;;23.76;37.38
69187;BME280;56301;56.864;60.554;2023-02-28T04:21:57;97108.59;;;23.75;37.15
69187;BME280;56301;56.864;60.554;2023-02-28T04:24:20;97106.31;;;23.72;37.01
69187;BME280;56301;56.864;60.554;2023-02-28T04:26:47;97099.03;;;23.73;36.98
69187;BME280;56301;56.864;60.554;2023-02-28T04:29:11;97106.31;;;23.72;37.22
69187;BME280;56301;56.864;60.554;2023-02-28T04:31:34;97099.03;;;23.73;36.88
69187;BME280;56301;56.864;60.554;2023-02-28T04:33:56;97099.03;;;23.73;36.83
69187;BME280;56301;56.864;60.554;2023-02-28T04:36:19;97107.13;;;23.73;36.81
69187;BME280;56301;56.864;60.554;2023-02-28T04:38:41;97099.28;;;23.71;36.99
69187;BME280;56301;56.864;60.554;2023-02-28T04:41:04;97104.66;;;23.71;36.77
69187;BME280;56301;56.864;60.554;2023-02-28T04:43:27;97107.38;;;23.71;36.81
69187;BME280;56301;56.864;60.554;2023-02-28T04:45:50;97108.38;;;23.70;36.77
69187;BME280;56301;56.864;60.554;2023-02-28T04:48:12;97110.06;;;23.71;36.62
69187;BME280;56301;56.864;60.554;2023-02-28T04:50:35;97116.50;;;23.70;36.97
69187;BME280;56301;56.864;60.554;2023-02-28T04:52:57;97112.97;;;23.70;36.82
69187;BME280;56301;56.864;60.554;2023-02-28T04:55:20;97117.53;;;23.69;37.08
69187;BME280;56301;56.864;60.554;2023-02-28T04:57:42;97116.72;;;23.69;36.54
69187;BME280;56301;56.864;60.554;2023-02-28T05:00:05;97115.91;;;23.68;36.90
69187;BME280;56301;56.864;60.554;2023-02-28T05:02:27;97115.91;;;23.68;36.95
69187;BME280;56301;56.864;60.554;2023-02-28T05:04:50;97116.91;;;23.67;37.31
69187;BME280;56301;56.864;60.554;2023-02-28T05:07:12;97119.00;;;23.65;36.88
69187;BME280;56301;56.864;60.554;2023-02-28T05:09:35;97112.53;;;23.66;36.70
69187;BME280;56301;56.864;60.554;2023-02-28T05:11:58;97117.94;;;23.66;36.48
69187;BME280;56301;56.864;60.554;2023-02-28T05:14:20;97113.59;;;23.65;36.51
69187;BME280;56301;56.864;60.554;2023-02-28T05:16:43;97110.69;;;23.67;36.43
69187;BME280;56301;56.864;60.554;2023-02-28T05:19:05;97112.53;;;23.66;37.04
69187;BME280;56301;56.864;60.554;2023-02-28T05:21:29;97107.13;;;23.66;36.56
69187;BME280;56301;56.864;60.554;2023-02-28T05:23:52;97106.31;;;23.66;36.50
69187;BME280;56301;56.864;60.554;2023-02-28T05:26:15;97101.97;;;23.65;36.54
69187;BME280;56301;56.864;60.554;2023-02-28T05:28:37;97094.69;;;23.65;36.81
69187;BME280;56301;56.864;60.554;2023-02-28T05:31:00;97100.09;;;23.65;36.47
69187;BME280;56301;56.864;60.554;2023-02-28T05:33:22;97094.69;;;23.65;37.19
69187;BME280;56301;56.864;60.554;2023-02-28T05:35:45;97091.16;;;23.65;36.54
69187;BME280;56301;56.864;60.554;2023-02-28T05:38:08;97083.06;;;23.65;36.57
69187;BME280;56301;56.864;60.554;2023-02-28T05:40:30;97082.25;;;23.64;36.46
69187;BME280;56301;56.864;60.554;2023-02-28T05:42:53;97093.03;;;23.64;36.75
69187;BME280;56301;56.864;60.554;2023-02-28T05:45:16;97096.78;;;23.63;36.87
69187;BME280;56301;56.864;60.554;2023-02-28T05:47:38;97080.56;;;23.63;36.40
69187;BME280;56301;56.864;60.554;2023-02-28T05:50:01;97080.81;;;23.62;36.65
69187;BME280;56301;56.864;60.554;2023-02-28T05:52:24;97084.31;;;23.62;36.75
69187;BME280;56301;56.864;60.554;2023-02-28T05:54:46;97069.78;;;23.63;36.51
69187;BME280;56301;56.864;60.554;2023-02-28T05:57:09;97075.16;;;23.63;36.55
69187;BME280;56301;56.864;60.554;2023-02-28T05:59:31;97070.59;;;23.64;36.39
69187;BME280;56301;56.864;60.554;2023-02-28T06:01:54;97069.34;;;23.66;36.70
69187;BME280;56301;56.864;60.554;2023-02-28T06:04:17;97073.53;;;23.69;36.40
69187;BME280;56301;56.864;60.554;2023-02-28T06:06:40;97067.69;;;23.72;36.38
69187;BME280;56301;56.864;60.554;2023-02-28T06:09:06;97057.28;;;23.75;35.98
69187;BME280;56301;56.864;60.554;2023-02-28T06:11:29;97058.91;;;23.76;36.57
69187;BME280;56301;56.864;60.554;2023-02-28T06:13:52;97060.56;;;23.77;36.04
69187;BME280;56301;56.864;60.554;2023-02-28T06:16:15;97043.94;;;23.81;36.29
69187;BME280;56301;56.864;60.554;2023-02-28T06:18:37;97046.00;;;25.99;32.25
69187;BME280;56301;56.864;60.554;2023-02-28T06:21:00;97051.91;;;26.90;30.49
69187;BME280;56301;56.864;60.554;2023-02-28T06:23:22;97055.47;;;25.00;34.10
69187;BME280;56301;56.864;60.554;2023-02-28T06:25:45;97046.75;;;24.42;35.10
69187;BME280;56301;56.864;60.554;2023-02-28T06:28:07;97051.97;;;24.81;34.66
69187;BME280;56301;56.864;60.554;2023-02-28T06:30:30;97050.91;;;24.82;34.31
69187;BME280;56301;56.864;60.554;2023-02-28T06:32:53;97049.84;;;24.64;34.58
69187;BME280;56301;56.864;60.554;2023-02-28T06:35:16;97052.19;;;24.36;35.19
69187;BME280;56301;56.864;60.554;2023-02-28T06:37:39;97049.00;;;24.20;34.82
69187;BME280;56301;56.864;60.554;2023-02-28T06:40:01;97032.25;;;24.12;35.52
69187;BME280;56301;56.864;60.554;2023-02-28T06:42:24;97053.69;;;24.07;35.71
69187;BME280;56301;56.864;60.554;2023-02-28T06:44:48;97059.16;;;24.00;35.62
69187;BME280;56301;56.864;60.554;2023-02-28T06:47:10;97052.53;;;23.96;35.66
69187;BME280;56301;56.864;60.554;2023-02-28T06:49:35;97055.66;;;23.93;36.04
69187;BME280;56301;56.864;60.554;2023-02-28T06:51:57;97047.19;;;23.89;35.63
69187;BME280;56301;56.864;60.554;2023-02-28T06:54:20;97060.09;;;23.87;35.97
69187;BME280;56301;56.864;60.554;2023-02-28T06:56:43;97060.75;;;23.83;35.81
69187;BME280;56301;56.864;60.554;2023-02-28T06:59:05;97052.84;;;23.81;35.86
69187;BME280;56301;56.864;60.554;2023-02-28T07:01:28;97051.22;;;23.80;35.75
69187;BME280;56301;56.864;60.554;2023-02-28T07:03:50;97041.66;;;23.77;35.75
69187;BME280;56301;56.864;60.554;2023-02-28T07:06:13;97048.50;;;23.80;36.10
69187;BME280;56301;56.864;60.554;2023-02-28T07:08:36;97040.44;;;23.73;35.83
69187;BME280;56301;56.864;60.554;2023-02-28T07:10:58;97050.81;;;23.76;35.95
69187;BME280;56301;56.864;60.554;2023-02-28T07:13:21;97051.88;;;23.75;35.83
69187;BME280;56301;56.864;60.554;2023-02-28T07:15:44;97052.69;;;23.76;35.65
69187;BME280;56301;56.864;60.554;2023-02-28T07:18:14;97040.69;;;23.72;35.88
69187;BME280;56301;56.864;60.554;2023-02-28T07:20:37;97045.84;;;23.73;35.81
69187;BME280;56301;56.864;60.554;2023-02-28T07:22:59;97042.09;;;23.74;35.84
69187;BME280;56301;56.864;60.554;2023-02-28T07:25:24;97048.13;;;23.76;36.28
69187;BME280;56301;56.864;60.554;2023-02-28T07:27:47;97044.78;;;23.74;35.75
69187;BME280;56301;56.864;60.554;2023-02-28T07:30:10;97041.06;;;23.75;35.97
69187;BME280;56301;56.864;60.554;2023-02-28T07:32:32;97040.03;;;23.76;36.17
69187;BME280;56301;56.864;60.554;2023-02-28T07:34:55;97031.28;;;23.74;36.03
69187;BME280;56301;56.864;60.554;2023-02-28T07:37:17;97038.13;;;23.77;36.01
69187;BME280;56301;56.864;60.554;2023-02-28T07:39:40;97038.13;;;23.77;35.57
69187;BME280;56301;56.864;60.554;2023-02-28T07:42:06;97045.19;;;23.78;35.49
69187;BME280;56301;56.864;60.554;2023-02-28T07:44:29;97033.56;;;23.77;36.01
69187;BME280;56301;56.864;60.554;2023-02-28T07:46:51;97031.91;;;23.76;35.92
69187;BME280;56301;56.864;60.554;2023-02-28T07:49:14;97025.47;;;23.77;35.71
69187;BME280;56301;56.864;60.554;2023-02-28T07:51:36;97024.63;;;23.77;35.52
69187;BME280;56301;56.864;60.554;2023-02-28T07:53:59;97023.38;;;23.80;35.57
69187;BME280;56301;56.864;60.554;2023-02-28T07:56:21;97024.44;;;23.78;35.71
69187;BME280;56301;56.864;60.554;2023-02-28T07:58:44;97027.34;;;23.77;35.97
69187;BME280;56301;56.864;60.554;2023-02-28T08:01:07;97025.88;;;23.74;35.72
69187;BME280;56301;56.864;60.554;2023-02-28T08:03:30;97014.50;;;23.72;36.29
69187;BME280;56301;56.864;60.554;2023-02-28T08:05:52;97018.84;;;23.73;35.48
69187;BME280;56301;56.864;60.554;2023-02-28T08:08:15;97014.44;;;23.79;35.69
69187;BME280;56301;56.864;60.554;2023-02-28T08:10:37;97002.38;;;23.82;36.16
69187;BME280;56301;56.864;60.554;2023-02-28T08:13:00;96994.06;;;23.83;35.28
69187;BME280;56301;56.864;60.554;2023-02-28T08:15:22;96994.88;;;23.84;35.80
69187;BME280;56301;56.864;60.554;2023-02-28T08:17:45;96995.50;;;23.86;35.33
69187;BME280;56301;56.864;60.554;2023-02-28T08:20:07;97003.75;;;23.91;35.37
69187;BME280;56301;56.864;60.554;2023-02-28T08:22:30;96994.53;;;23.98;35.03
69187;BME280;56301;56.864;60.554;2023-02-28T08:24:52;96992.66;;;23.99;34.90
69187;BME280;56301;56.864;60.554;2023-02-28T08:27:15;96999.28;;;24.03;35.35
69187;BME280;56301;56.864;60.554;2023-02-28T08:29:37;96995.38;;;23.99;35.24
69187;BME280;56301;56.864;60.554;2023-02-28T08:32:00;96991.84;;;23.98;35.21
69187;BME280;56301;56.864;60.554;2023-02-28T08:34:22;96994.16;;;23.95;35.06
69187;BME280;56301;56.864;60.554;2023-02-28T08:36:45;96991.06;;;23.91;35.11
69187;BME280;56301;56.864;60.554;2023-02-28T08:39:08;96990.69;;;23.88;35.19
69187;BME280;56301;56.864;60.554;2023-02-28T08:41:34;96974.91;;;23.85;35.29
69187;BME280;56301;56.864;60.554;2023-02-28T08:43:56;96982.00;;;23.86;35.67
69187;BME280;56301;56.864;60.554;2023-02-28T08:46:20;96966.22;;;23.83;35.36
69187;BME280;56301;56.864;60.554;2023-02-28T08:48:43;96967.88;;;23.84;35.14
69187;BME280;56301;56.864;60.554;2023-02-28T08:51:10;96968.94;;;23.83;35.50
69187;BME280;56301;56.864;60.554;2023-02-28T08:53:33;96950.22;;;23.81;35.61
69187;BME280;56301;56.864;60.554;2023-02-28T08:55:57;96952.34;;;23.79;35.32
69187;BME280;56301;56.864;60.554;2023-02-28T08:58:19;96955.88;;;23.80;35.24
69187;BME280;56301;56.864;60.554;2023-02-28T09:00:42;96942.34;;;23.80;35.24
69187;BME280;56301;56.864;60.554;2023-02-28T09:03:04;96948.81;;;23.78;35.32
69187;BME280;56301;56.864;60.554;2023-02-28T09:05:27;96945.25;;;23.78;35.32
69187;BME280;56301;56.864;60.554;2023-02-28T09:07:50;96944.25;;;23.79;35.39
69187;BME280;56301;56.864;60.554;2023-02-28T09:10:12;96942.81;;;23.76;35.68
69187;BME280;56301;56.864;60.554;2023-02-28T09:12:35;96942.81;;;23.76;35.50
69187;BME280;56301;56.864;60.554;2023-02-28T09:14:57;96949.25;;;23.75;35.53
69187;BME280;56301;56.864;60.554;2023-02-28T09:17:20;96953.84;;;23.75;35.18
69187;BME280;56301;56.864;60.554;2023-02-28T09:19:43;96962.75;;;23.75;35.78
69187;BME280;56301;56.864;60.554;2023-02-28T09:22:05;96939.47;;;23.74;35.33
69187;BME280;56301;56.864;60.554;2023-02-28T09:24:28;96935.13;;;23.73;35.34
69187;BME280;56301;56.864;60.554;2023-02-28T09:26:51;96922.69;;;23.72;35.58
69187;BME280;56301;56.864;60.554;2023-02-28T09:29:13;96928.09;;;23.72;35.42
69187;BME280;56301;56.864;60.554;2023-02-28T09:31:35;96914.34;;;23.74;35.18
69187;BME280;56301;56.864;60.554;2023-02-28T09:33:58;96919.16;;;23.72;35.33
69187;BME280;56301;56.864;60.554;2023-02-28T09:36:21;96910.25;;;23.71;35.10
69187;BME280;56301;56.864;60.554;2023-02-28T09:38:44;96907.53;;;23.71;35.62
69187;BME280;56301;56.864;60.554;2023-02-28T09:41:11;96904.84;;;23.71;35.23
69187;BME280;56301;56.864;60.554;2023-02-28T09:43:35;96907.75;;;23.70;35.52
69187;BME280;56301;56.864;60.554;2023-02-28T09:48:32;96906.09;;;23.69;35.65
69187;BME280;56301;56.864;60.554;2023-02-28T09:50:59;96892.59;;;23.69;35.42
69187;BME280;56301;56.864;60.554;2023-02-28T09:53:26;96878.28;;;23.68;35.24
69187;BME280;56301;56.864;60.554;2023-02-28T09:55:55;96889.09;;;23.68;35.29
69187;BME280;56301;56.864;60.554;2023-02-28T09:58:22;96872.25;;;23.66;35.23
69187;BME280;56301;56.864;60.554;2023-02-28T10:00:46;96866.66;;;23.68;35.15
69187;BME280;56301;56.864;60.554;2023-02-28T10:03:30;96874.94;;;23.66;35.34
69187;BME280;56301;56.864;60.554;2023-02-28T10:08:25;96868.72;;;23.66;35.33
69187;BME280;56301;56.864;60.554;2023-02-28T10:10:59;96867.91;;;23.65;35.06
69187;BME280;56301;56.864;60.554;2023-02-28T10:15:46;96872.47;;;23.65;35.37
69187;BME280;56301;56.864;60.554;2023-02-28T10:18:10;96867.06;;;23.65;35.37
69187;BME280;56301;56.864;60.554;2023-02-28T10:20:37;96869.97;;;23.63;35.71
69187;BME280;56301;56.864;60.554;2023-02-28T10:25:33;96848.38;;;23.63;35.21
69187;BME280;56301;56.864;60.554;2023-02-28T10:27:58;96852.75;;;23.64;35.29
69187;BME280;56301;56.864;60.554;2023-02-28T10:30:23;96844.66;;;23.64;35.26
69187;BME280;56301;56.864;60.554;2023-02-28T10:32:54;96857.97;;;23.59;34.84
69187;BME280;56301;56.864;60.554;2023-02-28T10:35:18;96849.66;;;23.61;35.37
69187;BME280;56301;56.864;60.554;2023-02-28T10:37:41;96849.66;;;23.61;35.40
69187;BME280;56301;56.864;60.554;2023-02-28T10:40:05;96840.72;;;23.60;35.26
69187;BME280;56301;56.864;60.554;2023-02-28T10:42:28;96837.44;;;23.58;35.11
69187;BME280;56301;56.864;60.554;2023-02-28T10:47:33;96835.56;;;23.59;35.14
69187;BME280;56301;56.864;60.554;2023-02-28T10:49:56;96827.69;;;23.57;35.56
69187;BME280;56301;56.864;60.554;2023-02-28T10:52:37;96829.34;;;23.58;35.18
69187;BME280;56301;56.864;60.554;2023-02-28T10:57:56;96844.72;;;23.58;35.33
69187;BME280;56301;56.864;60.554;2023-02-28T11:00:20;96837.44;;;23.58;35.39
69187;BME280;56301;56.864;60.554;2023-02-28T11:02:43;96829.34;;;23.58;34.73
69187;BME280;56301;56.864;60.554;2023-02-28T11:07:50;96834.72;;;23.58;35.22
69187;BME280;56301;56.864;60.554;2023-02-28T11:10:17;96818.97;;;23.55;35.29
69187;BME280;56301;56.864;60.554;2023-02-28T11:12:41;96813.34;;;23.57;34.75
69187;BME280;56301;56.864;60.554;2023-02-28T11:15:05;96820.63;;;23.56;34.93
69187;BME280;56301;56.864;60.554;2023-02-28T11:17:36;96808.19;;;23.55;34.84
69187;BME280;56301;56.864;60.554;2023-02-28T11:20:00;96815.22;;;23.56;35.33
69187;BME280;56301;56.864;60.554;2023-02-28T11:22:24;96805.72;;;23.53;35.23
69187;BME280;56301;56.864;60.554;2023-02-28T11:24:50;96799.84;;;23.57;34.55
69187;BME280;56301;56.864;60.554;2023-02-28T11:27:42;96794.25;;;23.58;34.84
69187;BME280;56301;56.864;60.554;2023-02-28T11:30:13;96802.94;;;23.60;34.56
69187;BME280;56301;56.864;60.554;2023-02-28T11:32:48;96778.41;;;23.62;34.93
69187;BME280;56301;56.864;60.554;2023-02-28T11:37:33;96796.50;;;23.61;35.32
69187;BME280;56301;56.864;60.554;2023-02-28T11:39:56;96775.72;;;23.62;35.27
69187;BME280;56301;56.864;60.554;2023-02-28T11:44:50;96762.44;;;23.60;34.43
69187;BME280;56301;56.864;60.554;2023-02-28T11:52:54;96754.34;;;23.60;34.68
69187;BME280;56301;56.864;60.554;2023-02-28T11:55:35;96753.31;;;23.61;34.65
69187;BME280;56301;56.864;60.554;2023-02-28T12:00:27;96757.03;;;23.60;35.05
69187;BME280;56301;56.864;60.554;2023-02-28T12:10:26;96730.50;;;23.57;34.76
69187;BME280;56301;56.864;60.554;2023-02-28T12:13:02;96717.59;;;23.59;35.26
69187;BME280;56301;56.864;60.554;2023-02-28T12:28:12;96693.19;;;23.72;34.49
69187;BME280;56301;56.864;60.554;2023-02-28T12:30:37;96685.28;;;23.71;34.38
69187;BME280;56301;56.864;60.554;2023-02-28T12:33:04;96694.22;;;23.71;34.67
69187;BME280;56301;56.864;60.554;2023-02-28T12:35:32;96682.38;;;23.72;34.75
69187;BME280;56301;56.864;60.554;2023-02-28T12:37:57;96684.25;;;23.72;35.23
69187;BME280;56301;56.864;60.554;2023-02-28T12:40:22;96688.59;;;23.73;35.24
69187;BME280;56301;56.864;60.554;2023-02-28T12:42:46;96686.19;;;23.65;34.61
69187;BME280;56301;56.864;60.554;2023-02-28T12:45:27;96676.91;;;23.61;35.48
69187;BME280;56301;56.864;60.554;2023-02-28T12:48:00;96681.69;;;23.59;35.16
69187;BME280;56301;56.864;60.554;2023-02-28T12:50:23;96690.03;;;23.57;35.08
69187;BME280;56301;56.864;60.554;2023-02-28T12:53:30;96686.47;;;23.57;35.11
69187;BME280;56301;56.864;60.554;2023-02-28T12:55:41;96691.53;;;23.53;35.71
69187;BME280;56301;56.864;60.554;2023-02-28T13:00:35;96691.53;;;23.53;35.68
69187;BME280;56301;56.864;60.554;2023-02-28T13:03:06;96693.63;;;23.51;35.31
69187;BME280;56301;56.864;60.554;2023-02-28T13:08:04;96678.47;;;23.50;35.16
69187;BME280;56301;56.864;60.554;2023-02-28T13:10:42;96680.34;;;23.49;35.50
69187;BME280;56301;56.864;60.554;2023-02-28T13:13:05;96666.00;;;23.49;35.15
69187;BME280;56301;56.864;60.554;2023-02-28T13:15:27;96667.06;;;23.48;35.49
69187;BME280;56301;56.864;60.554;2023-02-28T13:17:50;96664.38;;;23.48;35.42
69187;BME280;56301;56.864;60.554;2023-02-28T13:20:15;96676.22;;;23.47;35.29
69187;BME280;56301;56.864;60.554;2023-02-28T13:22:39;96670.00;;;23.46;35.48
69187;BME280;56301;56.864;60.554;2023-02-28T13:25:02;96668.34;;;23.45;35.06
69187;BME280;56301;56.864;60.554;2023-02-28T13:27:31;96661.09;;;23.46;35.51
69187;BME280;56301;56.864;60.554;2023-02-28T13:29:54;96658.41;;;23.46;35.38
69187;BME280;56301;56.864;60.554;2023-02-28T13:42:22;96645.09;;;23.44;34.80
69187;BME280;56301;56.864;60.554;2023-02-28T13:47:28;96625.41;;;23.44;35.22
69187;BME280;56301;56.864;60.554;2023-02-28T13:49:51;96614.00;;;23.42;35.23
69187;BME280;56301;56.864;60.554;2023-02-28T13:52:18;96638.28;;;23.42;34.82
69187;BME280;56301;56.864;60.554;2023-02-28T14:04:58;96622.25;;;23.47;34.88
69187;BME280;56301;56.864;60.554;2023-02-28T14:07:26;96608.75;;;23.47;35.31
69187;BME280;56301;56.864;60.554;2023-02-28T14:09:54;96611.66;;;23.45;35.11
69187;BME280;56301;56.864;60.554;2023-02-28T14:14:59;96607.97;;;23.58;35.29
69187;BME280;56301;56.864;60.554;2023-02-28T14:17:22;96602.56;;;23.58;35.42
69187;BME280;56301;56.864;60.554;2023-02-28T14:19:45;96605.03;;;23.60;35.51
69187;BME280;56301;56.864;60.554;2023-02-28T14:27:32;96588.44;;;23.74;35.39
69187;BME280;56301;56.864;60.554;2023-02-28T14:30:26;96589.88;;;23.77;35.41
69187;BME280;56301;56.864;60.554;2023-02-28T14:32:44;96586.97;;;23.78;35.83
69187;BME280;56301;56.864;60.554;2023-02-28T14:35:29;96586.97;;;23.78;35.55
69187;BME280;56301;56.864;60.554;2023-02-28T14:37:57;96575.69;;;23.82;35.78
69187;BME280;56301;56.864;60.554;2023-02-28T14:40:28;96571.94;;;23.83;35.43
69187;BME280;56301;56.864;60.554;2023-02-28T14:42:56;96567.34;;;23.83;35.71